Guadalupe Pass, TX

4:16 AM CDT on March 29, 2017 (GMT -0500)
Guadalupe Pass | | Change Station

Elev 5453 ft 31.83 °N, 104.80 °W | Updated 25 minutes ago

Clear
Clear
43 °F
Feels Like 32 °F
N
32
Wind Variable Wind from WSW
Gusts 39 mph

Today
High -- | Low -- °F
--% Chance of Precip.
Yesterday
High -- | Low -- °F
Precip. -- in
Pressure 29.67 in
Visibility -9999.0 miles
Clouds Clear
Windchill 32 °F
Dew Point 29 °F
Humidity 58%
Rainfall 0.00 in
Snow Depth Not available.
7:51 AM 8:17 PM
New Moon, 2% visible
METAR KGDP 290851Z AUTO 25028G34KT CLR 06/M02 A2980 RMK AO2 PK WND 26034/0836 SLP045 T00611017 58011
Pressure 29.67 in
Visibility -9999.0 miles
Clouds Clear
Windchill 32 °F
Dew Point 29 °F
Humidity 58%
Rainfall 0.00 in
Snow Depth Not available.
7:51 AM 8:17 PM
New Moon, 2% visible
METAR KGDP 290851Z AUTO 25028G34KT CLR 06/M02 A2980 RMK AO2 PK WND 26034/0836 SLP045 T00611017 58011

Get Severe Weather Alerts

Thanks for signing up!

Be on the lookout for a verification email in your inbox.

You'll start receiving the daily forecast at 8 AM.

×

10-Day Weather Forecast

Almanac

Astronomy

Mar. 29, 2017 Rise Set
Actual Time
Civil Twilight
Nautical Twilight
Astronomical Twilight
Moon
Length of Visible Light
Length of Day
Tomorrow will be .
, % of the Moon is Illuminated

Today's Extremes

State Highs State Lows

Community

WunderPhotos

Upload Photos

1,962,540 photos uploaded!

WunderBlog® & News

Nearby

Air Quality

  Air Quality AQ Index Pollutant
Not available.

Snow Depth

Station Depth Elevation

Earthquake Activity

City Distance Mag. Time & Date
Minimum magnitude displayed is 2.5.

Earthquake Activity

City Distance Mag. Time & Date
Minimum magnitude displayed is 2.5.

Coastal Water Temperatures

Place Temperature

Stations

Nearby Weather Stations

Station Location Temp. Windchill Dew Point Humidity Wind Precip. Elev Updated Type
                   

Watches & Warnings

There are currently no watches in effect.